X  Cerrar Datos meteorológicos de aviación METAR     LYNI Nis Airport
Temperatura
15°C Temperatura
13°C Punto de rocío
88% Humedad



Viento
1 M/S
3 MPH
5 KM/H
3 NUDO



90°
E
Condiciones actuales

Claro Claro
Presión 1003.92 (hPa) - 29.65 (inHg)
Visibilidad 6.2 (milla) - 10 (km)
Aeropuerto
Código de aeropuerto LYNI

localidad: Nis Airport
Distancia: 63 (km)

Metar:
LYNI 272000Z 09003KT CAVOK 15/13 Q1004 NOSIG

Hora: 27-09-2022 22:00 CEST